Rene — UBCJ8 — position and weather

sailwx.info

Track history (hours):
 
Tides and Currents Weather Stations Pressure Air Temp Water Temp Dewpoint Dewpoint Depression Visibility Wind Speed Wind Dir Waves Ship Positions

Rene

Last reported at 2017-Dec-15 20:01 UTC. Time now 2017-Dec-15 20:00 UTC.
Position N 44°44' E 037°47'.

Length 78 m; draft 3.4 m.

Type: Ship. MMSI: 273353480.

Date/timePositionNaut miles runAvg speedWind from/ knotsBaromVisibWave heightAir tempDewpointWater temp
2017-Dec-15 20:01N 44°44' E 037°47'0 0.0
2017-Dec-15 19:28N 44°44' E 037°47'0 0.0
2017-Dec-15 18:58N 44°44' E 037°47'0 0.0
2017-Dec-15 18:31N 44°44' E 037°47'0 0.0
2017-Dec-15 18:01N 44°44' E 037°47'0 0.0
2017-Dec-15 17:31N 44°44' E 037°47'0 0.0
2017-Dec-15 16:55N 44°44' E 037°47'0 0.0
2017-Dec-15 16:28N 44°44' E 037°47'0 0.0
2017-Dec-15 16:01N 44°44' E 037°47'0 0.0
2017-Dec-15 15:28N 44°44' E 037°47'0 0.0
2017-Dec-15 14:58N 44°44' E 037°47'0 0.0
2017-Dec-15 14:28N 44°44' E 037°47'0 0.0
2017-Dec-15 13:58N 44°44' E 037°47'0 0.0
2017-Dec-15 13:28N 44°44' E 037°47'0 0.0
2017-Dec-15 12:58N 44°44' E 037°47'0 0.0
2017-Dec-15 12:31N 44°44' E 037°47'0 0.0
2017-Dec-15 11:58N 44°44' E 037°47'0 0.0
2017-Dec-15 11:31N 44°44' E 037°47'0 0.0
2017-Dec-15 10:58N 44°44' E 037°47'0 0.0
2017-Dec-15 10:28N 44°44' E 037°47'0 0.7
2017-Dec-15 10:00N 44°44' E 037°47'3 5.4
2017-Dec-15 09:31N 44°41' E 037°49'0 0.1
2017-Dec-15 08:58N 44°41' E 037°49'0 0.0
2017-Dec-15 08:31N 44°41' E 037°49'0 0.1
2017-Dec-15 08:01N 44°41' E 037°49'1 2.3
2017-Dec-15 07:31N 44°40' E 037°50'3 6.7
2017-Dec-15 07:01N 44°37' E 037°51'4 7.5
2017-Dec-15 06:30N 44°33' E 037°53'4 7.5
2017-Dec-15 06:01N 44°30' E 037°55'712.3
2017-Dec-15 05:29N 44°35' E 038°01'1020.2
2017-Dec-15 05:00N 44°25' E 038°02'48 4.6
2017-Dec-14 18:31N 44°06' E 039°04'0 0.0
2017-Dec-14 18:00N 44°06' E 039°04'0 0.0
2017-Dec-14 17:31N 44°06' E 039°04'0 0.0
2017-Dec-14 17:01N 44°06' E 039°04'0 0.0
2017-Dec-14 16:28N 44°06' E 039°04'0 0.0
2017-Dec-14 16:01N 44°06' E 039°04'0 0.0
2017-Dec-14 14:58N 44°06' E 039°04'0 0.0
2017-Dec-14 14:31N 44°06' E 039°04'0 0.0
2017-Dec-14 13:58N 44°06' E 039°04'0 0.0
2017-Dec-14 13:31N 44°06' E 039°04'0 0.3
2017-Dec-14 12:58N 44°05' E 039°04'0 0.1
2017-Dec-14 12:28N 44°05' E 039°04'0 0.0
2017-Dec-14 11:58N 44°05' E 039°04'0 0.0
2017-Dec-14 11:28N 44°05' E 039°04'0 0.0
2017-Dec-14 11:01N 44°05' E 039°04'0 0.0
2017-Dec-14 10:31N 44°05' E 039°04'0 0.0
2017-Dec-14 10:01N 44°05' E 039°04'0 0.0
2017-Dec-14 09:31N 44°05' E 039°04'0 0.0
2017-Dec-14 09:01N 44°05' E 039°04'0 0.0
2017-Dec-14 08:31N 44°05' E 039°04'0 0.0
2017-Dec-14 08:01N 44°05' E 039°04'0 0.0
2017-Dec-14 07:31N 44°05' E 039°04'0 0.0
2017-Dec-14 07:01N 44°05' E 039°04'0 0.0
2017-Dec-14 06:31N 44°05' E 039°04'0 0.0
2017-Dec-14 05:58N 44°06' E 039°04'0 0.0
2017-Dec-14 05:28N 44°05' E 039°04'0 0.0
2017-Dec-14 04:58N 44°05' E 039°04'0 0.0
2017-Dec-14 04:30N 44°05' E 039°04'0 0.0
2017-Dec-14 03:58N 44°05' E 039°04'0 0.0
2017-Dec-14 03:25N 44°05' E 039°04'0 0.0
2017-Dec-14 03:01N 44°05' E 039°04'0 0.0
2017-Dec-14 02:28N 44°05' E 039°04'0 0.0
2017-Dec-14 01:58N 44°05' E 039°04'0 0.3
2017-Dec-14 01:31N 44°06' E 039°04'0 0.0
2017-Dec-14 00:58N 44°06' E 039°04'0 0.0
2017-Dec-14 00:28N 44°06' E 039°04'0 0.0
2017-Dec-14 00:01N 44°06' E 039°04'0 0.0
2017-Dec-13 23:31N 44°06' E 039°04'0 0.0
2017-Dec-13 23:00N 44°06' E 039°04'0 0.0
2017-Dec-13 22:28N 44°06' E 039°04'0 0.0
2017-Dec-13 22:00N 44°06' E 039°04'0 0.0
2017-Dec-13 21:27N 44°06' E 039°04'0 0.0
2017-Dec-13 21:00N 44°06' E 039°04'0 0.0
2017-Dec-13 20:30N 44°06' E 039°04'0 0.0
2017-Dec-13 20:00N 44°06' E 039°04'0 0.0
2017-Dec-13 19:30N 44°06' E 039°04'0 0.0
2017-Dec-13 19:00N 44°06' E 039°04'0 0.0
2017-Dec-13 18:30N 44°06' E 039°04'0 0.0
2017-Dec-13 18:00N 44°06' E 039°04'0 0.0
2017-Dec-13 17:30N 44°06' E 039°04'0 0.0
2017-Dec-13 17:00N 44°06' E 039°04'0 0.0
2017-Dec-13 16:30N 44°06' E 039°04'0 0.0
2017-Dec-13 16:00N 44°06' E 039°04'0 0.0
2017-Dec-13 15:30N 44°06' E 039°04'0 0.0
2017-Dec-13 15:00N 44°06' E 039°04'0 0.0
2017-Dec-13 14:30N 44°06' E 039°04'0 0.0
2017-Dec-13 14:00N 44°06' E 039°04'0 0.0
2017-Dec-13 13:30N 44°06' E 039°04'0 0.0
2017-Dec-13 13:00N 44°06' E 039°04'0 0.0
2017-Dec-13 12:30N 44°06' E 039°04'0 0.0
2017-Dec-13 12:00N 44°06' E 039°04'0 0.0
2017-Dec-13 11:30N 44°06' E 039°04'0 0.0
2017-Dec-13 11:00N 44°06' E 039°04'0 0.0
2017-Dec-13 10:30N 44°06' E 039°04'0 0.0
2017-Dec-13 10:00N 44°06' E 039°04'0 0.0
2017-Dec-13 09:30N 44°06' E 039°04'0 0.0
2017-Dec-13 09:00N 44°06' E 039°04'0 0.2
2017-Dec-13 08:31N 44°06' E 039°04'2 3.3
2017-Dec-13 08:01N 44°04' E 039°03'1 1.1
2017-Dec-13 07:27N 44°05' E 039°02'0 0.0
2017-Dec-13 06:57N 44°05' E 039°02'0 0.0
2017-Dec-13 06:28N 44°05' E 039°02'0 0.0
2017-Dec-13 05:58N 44°05' E 039°02'0 0.0
2017-Dec-13 05:28N 44°05' E 039°02'0 0.0
2017-Dec-13 04:58N 44°05' E 039°02'0 0.0
2017-Dec-13 04:31N 44°05' E 039°02'0 0.0
2017-Dec-13 04:01N 44°05' E 039°02'0 0.0
2017-Dec-13 03:28N 44°05' E 039°02'0 0.0
2017-Dec-13 03:01N 44°05' E 039°02'0 0.0
2017-Dec-13 02:28N 44°05' E 039°02'0 0.0
2017-Dec-13 01:58N 44°05' E 039°02'0 0.0
2017-Dec-13 01:31N 44°05' E 039°02'0 0.0
2017-Dec-13 01:01N 44°05' E 039°02'0 0.0
2017-Dec-13 00:28N 44°05' E 039°02'0 0.0
2017-Dec-12 23:57N 44°05' E 039°02'0 0.0
2017-Dec-12 23:25N 44°05' E 039°02'0 0.0
2017-Dec-12 22:58N 44°05' E 039°02'0 0.0
2017-Dec-12 22:31N 44°05' E 039°02'0 0.0
2017-Dec-12 22:00N 44°05' E 039°02'0 0.0
2017-Dec-12 21:31N 44°05' E 039°02'0 0.0
2017-Dec-12 21:01N 44°05' E 039°02'0 0.0
2017-Dec-12 20:31N 44°05' E 039°02'0 0.0
2017-Dec-12 19:58N 44°05' E 039°02'0 0.0
2017-Dec-12 19:28N 44°05' E 039°02'0 0.0
2017-Dec-12 19:01N 44°05' E 039°02'0 0.0
2017-Dec-12 18:28N 44°05' E 039°02'0 0.0
2017-Dec-12 17:58N 44°05' E 039°02'0 0.0
2017-Dec-12 17:31N 44°05' E 039°02'0 0.0
2017-Dec-12 17:01N 44°05' E 039°02'0 0.0
2017-Dec-12 16:31N 44°05' E 039°02'0 0.0
2017-Dec-12 16:01N 44°05' E 039°02'0 0.0
2017-Dec-12 15:25N 44°05' E 039°02'0 0.0
2017-Dec-12 14:58N 44°05' E 039°02'0 0.0
2017-Dec-12 14:31N 44°05' E 039°02'0 0.0
2017-Dec-12 14:01N 44°05' E 039°02'0 0.0
2017-Dec-12 13:31N 44°05' E 039°02'0 0.0
2017-Dec-12 12:58N 44°05' E 039°02'0 0.0
2017-Dec-12 12:19N 44°05' E 039°02'0 0.0
2017-Dec-12 11:58N 44°05' E 039°02'0 0.0
2017-Dec-12 11:31N 44°05' E 039°02'0 0.0
2017-Dec-12 10:58N 44°05' E 039°02'0 0.0
2017-Dec-12 10:31N 44°05' E 039°02'0 0.0
2017-Dec-12 09:58N 44°05' E 039°02'0 0.0
2017-Dec-12 09:28N 44°05' E 039°02'0 0.0
2017-Dec-12 09:01N 44°05' E 039°02'0 0.0
2017-Dec-12 08:31N 44°05' E 039°02'0 0.0
2017-Dec-12 07:58N 44°05' E 039°02'0 0.0
2017-Dec-12 07:31N 44°05' E 039°02'0 0.0
2017-Dec-12 07:01N 44°05' E 039°02'0 0.0
2017-Dec-12 06:28N 44°05' E 039°02'0 0.0
2017-Dec-12 05:58N 44°05' E 039°02'0 0.0
2017-Dec-12 05:31N 44°05' E 039°02'0 0.0
2017-Dec-12 05:01N 44°05' E 039°02'0 0.0
2017-Dec-12 04:27N 44°05' E 039°02'0 0.0
2017-Dec-12 04:01N 44°05' E 039°02'0 0.0
2017-Dec-12 03:28N 44°05' E 039°02'0 0.0
2017-Dec-12 03:01N 44°05' E 039°02'0 0.0
2017-Dec-12 02:31N 44°05' E 039°02'0 0.0
2017-Dec-12 01:58N 44°05' E 039°02'0 0.0
2017-Dec-12 01:25N 44°05' E 039°02'0 0.0
2017-Dec-12 00:55N 44°05' E 039°02'0 0.0
2017-Dec-12 00:28N 44°05' E 039°02'0 0.0
2017-Dec-12 00:00N 44°05' E 039°02'0 0.0
2017-Dec-11 23:31N 44°05' E 039°02'0 0.0
2017-Dec-11 23:01N 44°05' E 039°02'0 0.0
2017-Dec-11 22:28N 44°05' E 039°02'0 0.0
2017-Dec-11 22:00N 44°05' E 039°02'0 0.0
2017-Dec-11 21:31N 44°05' E 039°02'0 0.0
2017-Dec-11 21:01N 44°05' E 039°02'0 0.0
2017-Dec-11 20:31N 44°05' E 039°02'0 0.0
2017-Dec-11 20:01N 44°05' E 039°02'0 0.0
2017-Dec-11 19:28N 44°05' E 039°02'0 0.0
2017-Dec-11 19:01N 44°05' E 039°02'0 0.0
2017-Dec-11 18:31N 44°05' E 039°02'0 0.0
2017-Dec-11 18:01N 44°05' E 039°02'0 0.0
2017-Dec-11 17:31N 44°05' E 039°02'0 0.0
2017-Dec-11 17:01N 44°05' E 039°02'0 0.0
2017-Dec-11 16:28N 44°05' E 039°02'0 0.0
2017-Dec-11 16:01N 44°05' E 039°02'0 0.0
2017-Dec-11 15:30N 44°05' E 039°02'0 0.0
2017-Dec-11 15:01N 44°05' E 039°02'0 0.0
2017-Dec-11 14:31N 44°05' E 039°02'0 0.0
2017-Dec-11 14:01N 44°05' E 039°02'0 0.0
2017-Dec-11 13:31N 44°05' E 039°02'0 0.0
2017-Dec-11 13:01N 44°05' E 039°02'0 0.0
2017-Dec-11 12:27N 44°05' E 039°02'0 0.0
2017-Dec-11 12:00N 44°05' E 039°02'0 0.0
2017-Dec-11 11:31N 44°05' E 039°02'0 0.0
2017-Dec-11 11:01N 44°05' E 039°02'0 0.0
2017-Dec-11 10:31N 44°05' E 039°02'0 0.0
2017-Dec-11 10:01N 44°05' E 039°02'0 0.0
2017-Dec-11 09:31N 44°05' E 039°02'0 0.0
2017-Dec-11 09:01N 44°05' E 039°02'0 0.0
2017-Dec-11 08:31N 44°05' E 039°02'0 0.0
2017-Dec-11 07:58N 44°05' E 039°02'0 0.0
2017-Dec-11 07:28N 44°05' E 039°02'0 0.0
2017-Dec-11 06:58N 44°05' E 039°02'0 0.0
2017-Dec-11 06:27N 44°05' E 039°02'0 0.0
2017-Dec-11 06:01N 44°05' E 039°02'0 0.0
2017-Dec-11 05:31N 44°05' E 039°02'0 0.0
2017-Dec-11 04:58N 44°05' E 039°02'0 0.0
2017-Dec-11 04:31N 44°05' E 039°02'0 0.0
2017-Dec-11 03:58N 44°05' E 039°02'0 0.0
2017-Dec-11 03:31N 44°05' E 039°02'0 0.0
2017-Dec-11 02:58N 44°05' E 039°02'0 0.1
2017-Dec-11 02:28N 44°05' E 039°02'0 0.0
2017-Dec-11 02:01N 44°05' E 039°02'0 0.1
2017-Dec-11 01:31N 44°05' E 039°02'0 0.0
2017-Dec-11 01:00N 44°05' E 039°02'0 0.0
2017-Dec-11 00:28N 44°05' E 039°02'0 0.0
2017-Dec-10 23:58N 44°05' E 039°02'0 0.0
2017-Dec-10 23:25N 44°05' E 039°02'0 0.0
2017-Dec-10 23:01N 44°05' E 039°02'0 0.0
2017-Dec-10 22:28N 44°05' E 039°02'0 0.1
2017-Dec-10 22:01N 44°05' E 039°02'0 0.0
2017-Dec-10 21:28N 44°05' E 039°02'0 0.2
2017-Dec-10 21:01N 44°05' E 039°02'0 0.1
2017-Dec-10 20:31N 44°05' E 039°02'0 0.1
2017-Dec-10 20:01N 44°05' E 039°02'0 0.0
2017-Dec-10 19:28N 44°05' E 039°02'0 0.0
2017-Dec-10 18:58N 44°05' E 039°02'0 0.0
2017-Dec-10 18:28N 44°05' E 039°02'0 0.0
2017-Dec-10 17:58N 44°05' E 039°02'0 0.0
2017-Dec-10 17:31N 44°05' E 039°02'0 0.0
2017-Dec-10 17:01N 44°05' E 039°02'0 0.0
2017-Dec-10 16:28N 44°05' E 039°02'0 0.0
2017-Dec-10 15:58N 44°05' E 039°02'0 0.0
2017-Dec-10 15:31N 44°05' E 039°02'0 0.0
2017-Dec-10 14:58N 44°05' E 039°02'0 0.0
2017-Dec-10 14:31N 44°05' E 039°02'0 0.0
2017-Dec-10 13:58N 44°05' E 039°02'0 0.0
2017-Dec-10 13:28N 44°05' E 039°02'0 0.0
2017-Dec-10 13:01N 44°05' E 039°02'0 0.0
2017-Dec-10 12:27N 44°05' E 039°02'0 0.0
2017-Dec-10 11:58N 44°05' E 039°02'0 0.0
2017-Dec-10 11:31N 44°05' E 039°02'0 0.0
2017-Dec-10 11:00N 44°05' E 039°02'0 0.0
2017-Dec-10 10:25N 44°05' E 039°02'0 0.0
2017-Dec-10 10:01N 44°05' E 039°02'0 0.0
2017-Dec-10 09:31N 44°05' E 039°02'0 0.0
2017-Dec-10 09:01N 44°05' E 039°02'0 0.0
2017-Dec-10 08:31N 44°05' E 039°02'0 0.0
2017-Dec-10 08:01N 44°05' E 039°02'0 0.0
2017-Dec-10 07:31N 44°05' E 039°02'0 0.0
2017-Dec-10 06:58N 44°05' E 039°02'0 0.0
2017-Dec-10 06:28N 44°05' E 039°02'0 0.0
2017-Dec-10 06:01N 44°05' E 039°02'0 0.0
2017-Dec-10 05:31N 44°05' E 039°02'0 0.0
2017-Dec-10 05:01N 44°05' E 039°02'0 0.0
2017-Dec-10 04:31N 44°05' E 039°02'0 0.0
2017-Dec-10 04:01N 44°05' E 039°02'0 0.0
2017-Dec-10 03:31N 44°05' E 039°02'0 0.0
2017-Dec-10 03:01N 44°05' E 039°02'0 0.0
2017-Dec-10 02:28N 44°05' E 039°02'0 0.0
2017-Dec-10 02:01N 44°05' E 039°02'0 0.0
2017-Dec-10 01:27N 44°05' E 039°02'0 0.0
2017-Dec-10 00:55N 44°05' E 039°02'0 0.0
2017-Dec-10 00:30N 44°05' E 039°02'0 0.0
2017-Dec-10 00:01N 44°05' E 039°02'0 0.0
2017-Dec-09 23:31N 44°05' E 039°02'0 0.0
2017-Dec-09 22:58N 44°05' E 039°02'0 0.0
2017-Dec-09 22:30N 44°05' E 039°02'0 0.0
2017-Dec-09 22:01N 44°05' E 039°02'0 0.0
2017-Dec-09 21:28N 44°05' E 039°02'0 0.0
2017-Dec-09 21:01N 44°05' E 039°02'0 0.0
2017-Dec-09 20:27N 44°05' E 039°02'0 0.0
2017-Dec-09 20:01N 44°05' E 039°02'0 0.0
2017-Dec-09 19:25N 44°05' E 039°02'0 0.0
2017-Dec-09 19:01N 44°05' E 039°02'0 0.0
2017-Dec-09 18:27N 44°05' E 039°02'0 0.0
2017-Dec-09 17:58N 44°05' E 039°02'0 0.0
2017-Dec-09 17:31N 44°05' E 039°02'0 0.0
2017-Dec-09 17:01N 44°05' E 039°02'0 0.0
2017-Dec-09 16:25N 44°05' E 039°02'0 0.0
2017-Dec-09 16:01N 44°05' E 039°02'0 0.0
2017-Dec-09 15:31N 44°05' E 039°02'0 0.0
2017-Dec-09 15:00N 44°05' E 039°02'0 0.0
2017-Dec-09 14:28N 44°05' E 039°02'0 0.0
2017-Dec-09 14:01N 44°05' E 039°02'0 0.0
2017-Dec-09 13:30N 44°05' E 039°02'0 0.0
2017-Dec-09 12:58N 44°05' E 039°02'0 0.0
2017-Dec-09 12:30N 44°05' E 039°02'0 0.0
2017-Dec-09 11:58N 44°05' E 039°02'0 0.0
2017-Dec-09 11:28N 44°05' E 039°02'0 0.0
2017-Dec-09 11:01N 44°05' E 039°02'0 0.0
2017-Dec-09 10:28N 44°05' E 039°02'0 0.0
2017-Dec-09 09:58N 44°05' E 039°02'0 0.0
2017-Dec-09 09:30N 44°05' E 039°02'0 0.0
2017-Dec-09 09:01N 44°05' E 039°02'0 0.0
2017-Dec-09 08:28N 44°05' E 039°02'0 0.0
2017-Dec-09 08:01N 44°05' E 039°02'0 0.0
2017-Dec-09 07:31N 44°05' E 039°02'0 0.0
2017-Dec-09 06:58N 44°05' E 039°02'0 0.0
2017-Dec-09 06:28N 44°05' E 039°02'0 0.0
2017-Dec-09 06:01N 44°05' E 039°02'0 0.0
2017-Dec-09 05:25N 44°05' E 039°02'0 0.0
2017-Dec-09 04:58N 44°05' E 039°02'0 0.0
2017-Dec-09 04:28N 44°05' E 039°02'0 0.0
2017-Dec-09 04:01N 44°05' E 039°02'0 0.0
2017-Dec-09 03:22N 44°05' E 039°02'0 0.0
2017-Dec-09 02:58N 44°05' E 039°02'0 0.0
2017-Dec-09 02:31N 44°05' E 039°02'0 0.0
2017-Dec-09 02:01N 44°05' E 039°02'0 0.0
2017-Dec-09 01:31N 44°05' E 039°02'0 0.0
2017-Dec-09 01:01N 44°05' E 039°02'0 0.0
2017-Dec-09 00:28N 44°05' E 039°02'0 0.0
2017-Dec-08 23:58N 44°05' E 039°02'0 0.0
2017-Dec-08 23:28N 44°05' E 039°02'0 0.0
2017-Dec-08 23:01N 44°05' E 039°02'0 0.0
2017-Dec-08 22:28N 44°05' E 039°02'0 0.0
2017-Dec-08 21:58N 44°05' E 039°02'0 0.0
2017-Dec-08 21:31N 44°05' E 039°02'0 0.0
2017-Dec-08 20:58N 44°05' E 039°02'0 0.1
2017-Dec-08 20:28N 44°05' E 039°02'0 0.5
2017-Dec-08 20:01N 44°05' E 039°02'0 0.0
2017-Dec-08 19:28N 44°05' E 039°02'0 0.1
2017-Dec-08 19:01N 44°05' E 039°02'0 0.0
2017-Dec-08 18:31N 44°05' E 039°02'0 0.0
2017-Dec-08 18:01N 44°05' E 039°02'0 0.0
2017-Dec-08 17:31N 44°05' E 039°02'0 0.0
2017-Dec-08 16:55N 44°05' E 039°02'0 0.0
2017-Dec-08 16:31N 44°05' E 039°02'0 0.0
2017-Dec-08 16:01N 44°05' E 039°02'0 0.0
2017-Dec-08 15:28N 44°05' E 039°02'0 0.0
2017-Dec-08 15:00N 44°05' E 039°02'0 0.0
2017-Dec-08 14:28N 44°05' E 039°02'0 0.0
2017-Dec-08 14:01N 44°05' E 039°02'0 0.0
2017-Dec-08 13:28N 44°05' E 039°02'0 0.0
2017-Dec-08 13:01N 44°05' E 039°02'0 0.0
2017-Dec-08 12:31N 44°05' E 039°02'0 0.0
2017-Dec-08 12:01N 44°05' E 039°02'0 0.0
2017-Dec-08 11:28N 44°05' E 039°02'0 0.0
2017-Dec-08 11:01N 44°05' E 039°02'0 0.0
2017-Dec-08 10:31N 44°05' E 039°02'0 0.0
2017-Dec-08 10:00N 44°05' E 039°02'0 0.0
2017-Dec-08 09:31N 44°05' E 039°02'0 0.0
2017-Dec-08 09:00N 44°05' E 039°02'0 0.0
2017-Dec-08 08:28N 44°05' E 039°02'0 0.0
2017-Dec-08 08:01N 44°05' E 039°02'0 0.0
2017-Dec-08 07:28N 44°05' E 039°02'0 0.0
2017-Dec-08 07:01N 44°05' E 039°02'0 0.0
2017-Dec-08 06:28N 44°05' E 039°02'0 0.0
2017-Dec-08 06:01N 44°05' E 039°02'0 0.0
2017-Dec-08 05:31N 44°05' E 039°02'0 0.0
2017-Dec-08 04:58N 44°05' E 039°02'0 0.0
2017-Dec-08 04:28N 44°05' E 039°02'0 0.0
2017-Dec-08 03:58N 44°05' E 039°02'0 0.0
2017-Dec-08 03:28N 44°05' E 039°02'0 0.0
2017-Dec-08 03:01N 44°05' E 039°02'0 0.0
2017-Dec-08 02:31N 44°05' E 039°02'0 0.1
2017-Dec-08 01:58N 44°05' E 039°02'0 0.1
2017-Dec-08 01:28N 44°05' E 039°02'0 0.0
2017-Dec-08 01:01N 44°05' E 039°02'0 0.0
2017-Dec-08 00:31N 44°05' E 039°02'0 0.0
2017-Dec-07 23:58N 44°05' E 039°02'0 0.0
2017-Dec-07 23:28N 44°05' E 039°02'0 0.0
2017-Dec-07 23:01N 44°05' E 039°02'0 0.0
2017-Dec-07 22:30N 44°05' E 039°02'0 0.0
2017-Dec-07 22:01N 44°05' E 039°02'0 0.0
2017-Dec-07 21:31N 44°05' E 039°02'0 0.0
2017-Dec-07 21:01N 44°05' E 039°02'0 0.0
2017-Dec-07 20:24N 44°05' E 039°02'0 0.2
2017-Dec-07 20:01N 44°05' E 039°02'1 2.7
2017-Dec-07 19:30N 44°05' E 039°04'1 1.1
2017-Dec-07 18:58N 44°06' E 039°04'0 0.0
2017-Dec-07 18:31N 44°06' E 039°04'0 0.0
2017-Dec-07 18:01N 44°06' E 039°04'0 0.0
2017-Dec-07 17:28N 44°06' E 039°04'0 0.0
2017-Dec-07 16:58N 44°06' E 039°04'0 0.0
2017-Dec-07 16:31N 44°06' E 039°04'0 0.0
2017-Dec-07 16:01N 44°06' E 039°04'0 0.0
2017-Dec-07 15:31N 44°06' E 039°04'0 0.0
2017-Dec-07 14:58N 44°06' E 039°04'0 0.0
2017-Dec-07 14:31N 44°06' E 039°04'0 0.0
2017-Dec-07 13:58N 44°06' E 039°04'0 0.0
2017-Dec-07 13:27N 44°06' E 039°04'0 0.0
2017-Dec-07 12:57N 44°06' E 039°04'0 0.0
2017-Dec-07 12:28N 44°06' E 039°04'0 0.0
2017-Dec-07 12:01N 44°06' E 039°04'0 0.0
2017-Dec-07 11:28N 44°06' E 039°04'0 0.0
2017-Dec-07 10:58N 44°06' E 039°04'0 0.0
2017-Dec-07 10:31N 44°06' E 039°04'0 0.0
2017-Dec-07 09:58N 44°06' E 039°04'0 0.0
2017-Dec-07 09:31N 44°06' E 039°04'0 0.0
2017-Dec-07 08:58N 44°06' E 039°04'0 0.0
2017-Dec-07 08:31N 44°06' E 039°04'0 0.0
2017-Dec-07 07:58N 44°06' E 039°04'0 0.0
2017-Dec-07 07:31N 44°06' E 039°04'0 0.0
2017-Dec-07 06:58N 44°06' E 039°04'0 0.0
2017-Dec-07 06:28N 44°06' E 039°04'0 0.0
2017-Dec-07 05:25N 44°06' E 039°04'0 0.0
2017-Dec-07 05:01N 44°06' E 039°04'0 0.0
2017-Dec-07 04:31N 44°06' E 039°04'0 0.0
2017-Dec-07 04:01N 44°06' E 039°04'0 0.0
2017-Dec-07 03:28N 44°06' E 039°04'0 0.0
2017-Dec-07 02:58N 44°06' E 039°04'0 0.0
2017-Dec-07 02:31N 44°06' E 039°04'0 0.0
2017-Dec-07 02:01N 44°06' E 039°04'0 0.0
2017-Dec-07 01:31N 44°06' E 039°04'0 0.0
2017-Dec-07 00:58N 44°06' E 039°04'0 0.0
2017-Dec-07 00:28N 44°06' E 039°04'0 0.0
2017-Dec-06 23:58N 44°06' E 039°04'0 0.0
2017-Dec-06 23:28N 44°06' E 039°04'0 0.0
2017-Dec-06 22:58N 44°06' E 039°04'0 0.0
2017-Dec-06 22:28N 44°06' E 039°04'0 0.0
2017-Dec-06 21:58N 44°06' E 039°04'0 0.0
2017-Dec-06 21:31N 44°06' E 039°04'0 0.0
2017-Dec-06 20:58N 44°06' E 039°04'  
Track history (hours):
 
Tides and Currents Weather Stations Pressure Air Temp Water Temp Dewpoint Dewpoint Depression Visibility Wind Speed Wind Dir Waves Ship Positions

Rene

Last reported at 2017-Dec-15 20:01 UTC. Time now 2017-Dec-15 20:00 UTC.
Position N 44°44' E 037°47'.

Length 78 m; draft 3.4 m.

Type: Ship. MMSI: 273353480.

Date/timePositionNaut miles runAvg speedWind from/ knotsBaromVisibWave heightAir tempDewpointWater temp
2017-Dec-15 20:01N 44°44' E 037°47'0 0.0
2017-Dec-15 19:28N 44°44' E 037°47'0 0.0
2017-Dec-15 18:58N 44°44' E 037°47'0 0.0
2017-Dec-15 18:31N 44°44' E 037°47'0 0.0
2017-Dec-15 18:01N 44°44' E 037°47'0 0.0
2017-Dec-15 17:31N 44°44' E 037°47'0 0.0
2017-Dec-15 16:55N 44°44' E 037°47'0 0.0
2017-Dec-15 16:28N 44°44' E 037°47'0 0.0
2017-Dec-15 16:01N 44°44' E 037°47'0 0.0
2017-Dec-15 15:28N 44°44' E 037°47'0 0.0
2017-Dec-15 14:58N 44°44' E 037°47'0 0.0
2017-Dec-15 14:28N 44°44' E 037°47'0 0.0
2017-Dec-15 13:58N 44°44' E 037°47'0 0.0
2017-Dec-15 13:28N 44°44' E 037°47'0 0.0
2017-Dec-15 12:58N 44°44' E 037°47'0 0.0
2017-Dec-15 12:31N 44°44' E 037°47'0 0.0
2017-Dec-15 11:58N 44°44' E 037°47'0 0.0
2017-Dec-15 11:31N 44°44' E 037°47'0 0.0
2017-Dec-15 10:58N 44°44' E 037°47'0 0.0
2017-Dec-15 10:28N 44°44' E 037°47'0 0.7
2017-Dec-15 10:00N 44°44' E 037°47'3 5.4
2017-Dec-15 09:31N 44°41' E 037°49'0 0.1
2017-Dec-15 08:58N 44°41' E 037°49'0 0.0
2017-Dec-15 08:31N 44°41' E 037°49'0 0.1
2017-Dec-15 08:01N 44°41' E 037°49'1 2.3
2017-Dec-15 07:31N 44°40' E 037°50'3 6.7
2017-Dec-15 07:01N 44°37' E 037°51'4 7.5
2017-Dec-15 06:30N 44°33' E 037°53'4 7.5
2017-Dec-15 06:01N 44°30' E 037°55'712.3
2017-Dec-15 05:29N 44°35' E 038°01'1020.2
2017-Dec-15 05:00N 44°25' E 038°02'48 4.6
2017-Dec-14 18:31N 44°06' E 039°04'0 0.0
2017-Dec-14 18:00N 44°06' E 039°04'0 0.0
2017-Dec-14 17:31N 44°06' E 039°04'0 0.0
2017-Dec-14 17:01N 44°06' E 039°04'0 0.0
2017-Dec-14 16:28N 44°06' E 039°04'0 0.0
2017-Dec-14 16:01N 44°06' E 039°04'0 0.0
2017-Dec-14 14:58N 44°06' E 039°04'0 0.0
2017-Dec-14 14:31N 44°06' E 039°04'0 0.0
2017-Dec-14 13:58N 44°06' E 039°04'0 0.0
2017-Dec-14 13:31N 44°06' E 039°04'0 0.3
2017-Dec-14 12:58N 44°05' E 039°04'0 0.1
2017-Dec-14 12:28N 44°05' E 039°04'0 0.0
2017-Dec-14 11:58N 44°05' E 039°04'0 0.0
2017-Dec-14 11:28N 44°05' E 039°04'0 0.0
2017-Dec-14 11:01N 44°05' E 039°04'0 0.0
2017-Dec-14 10:31N 44°05' E 039°04'0 0.0
2017-Dec-14 10:01N 44°05' E 039°04'0 0.0
2017-Dec-14 09:31N 44°05' E 039°04'0 0.0
2017-Dec-14 09:01N 44°05' E 039°04'0 0.0
2017-Dec-14 08:31N 44°05' E 039°04'0 0.0
2017-Dec-14 08:01N 44°05' E 039°04'0 0.0
2017-Dec-14 07:31N 44°05' E 039°04'0 0.0
2017-Dec-14 07:01N 44°05' E 039°04'0 0.0
2017-Dec-14 06:31N 44°05' E 039°04'0 0.0
2017-Dec-14 05:58N 44°06' E 039°04'0 0.0
2017-Dec-14 05:28N 44°05' E 039°04'0 0.0
2017-Dec-14 04:58N 44°05' E 039°04'0 0.0
2017-Dec-14 04:30N 44°05' E 039°04'0 0.0
2017-Dec-14 03:58N 44°05' E 039°04'0 0.0
2017-Dec-14 03:25N 44°05' E 039°04'0 0.0
2017-Dec-14 03:01N 44°05' E 039°04'0 0.0
2017-Dec-14 02:28N 44°05' E 039°04'0 0.0
2017-Dec-14 01:58N 44°05' E 039°04'0 0.3
2017-Dec-14 01:31N 44°06' E 039°04'0 0.0
2017-Dec-14 00:58N 44°06' E 039°04'0 0.0
2017-Dec-14 00:28N 44°06' E 039°04'0 0.0
2017-Dec-14 00:01N 44°06' E 039°04'0 0.0
2017-Dec-13 23:31N 44°06' E 039°04'0 0.0
2017-Dec-13 23:00N 44°06' E 039°04'0 0.0
2017-Dec-13 22:28N 44°06' E 039°04'0 0.0
2017-Dec-13 22:00N 44°06' E 039°04'0 0.0
2017-Dec-13 21:27N 44°06' E 039°04'0 0.0
2017-Dec-13 21:00N 44°06' E 039°04'0 0.0
2017-Dec-13 20:30N 44°06' E 039°04'0 0.0
2017-Dec-13 20:00N 44°06' E 039°04'0 0.0
2017-Dec-13 19:30N 44°06' E 039°04'0 0.0
2017-Dec-13 19:00N 44°06' E 039°04'0 0.0
2017-Dec-13 18:30N 44°06' E 039°04'0 0.0
2017-Dec-13 18:00N 44°06' E 039°04'0 0.0
2017-Dec-13 17:30N 44°06' E 039°04'0 0.0
2017-Dec-13 17:00N 44°06' E 039°04'0 0.0
2017-Dec-13 16:30N 44°06' E 039°04'0 0.0
2017-Dec-13 16:00N 44°06' E 039°04'0 0.0
2017-Dec-13 15:30N 44°06' E 039°04'0 0.0
2017-Dec-13 15:00N 44°06' E 039°04'0 0.0
2017-Dec-13 14:30N 44°06' E 039°04'0 0.0
2017-Dec-13 14:00N 44°06' E 039°04'0 0.0
2017-Dec-13 13:30N 44°06' E 039°04'0 0.0
2017-Dec-13 13:00N 44°06' E 039°04'0 0.0
2017-Dec-13 12:30N 44°06' E 039°04'0 0.0
2017-Dec-13 12:00N 44°06' E 039°04'0 0.0
2017-Dec-13 11:30N 44°06' E 039°04'0 0.0
2017-Dec-13 11:00N 44°06' E 039°04'0 0.0
2017-Dec-13 10:30N 44°06' E 039°04'0 0.0
2017-Dec-13 10:00N 44°06' E 039°04'0 0.0
2017-Dec-13 09:30N 44°06' E 039°04'0 0.0
2017-Dec-13 09:00N 44°06' E 039°04'0 0.2
2017-Dec-13 08:31N 44°06' E 039°04'2 3.3
2017-Dec-13 08:01N 44°04' E 039°03'1 1.1
2017-Dec-13 07:27N 44°05' E 039°02'0 0.0
2017-Dec-13 06:57N 44°05' E 039°02'0 0.0
2017-Dec-13 06:28N 44°05' E 039°02'0 0.0
2017-Dec-13 05:58N 44°05' E 039°02'0 0.0
2017-Dec-13 05:28N 44°05' E 039°02'0 0.0
2017-Dec-13 04:58N 44°05' E 039°02'0 0.0
2017-Dec-13 04:31N 44°05' E 039°02'0 0.0
2017-Dec-13 04:01N 44°05' E 039°02'0 0.0
2017-Dec-13 03:28N 44°05' E 039°02'0 0.0
2017-Dec-13 03:01N 44°05' E 039°02'0 0.0
2017-Dec-13 02:28N 44°05' E 039°02'0 0.0
2017-Dec-13 01:58N 44°05' E 039°02'0 0.0
2017-Dec-13 01:31N 44°05' E 039°02'0 0.0
2017-Dec-13 01:01N 44°05' E 039°02'0 0.0
2017-Dec-13 00:28N 44°05' E 039°02'0 0.0
2017-Dec-12 23:57N 44°05' E 039°02'0 0.0
2017-Dec-12 23:25N 44°05' E 039°02'0 0.0
2017-Dec-12 22:58N 44°05' E 039°02'0 0.0
2017-Dec-12 22:31N 44°05' E 039°02'0 0.0
2017-Dec-12 22:00N 44°05' E 039°02'0 0.0
2017-Dec-12 21:31N 44°05' E 039°02'0 0.0
2017-Dec-12 21:01N 44°05' E 039°02'0 0.0
2017-Dec-12 20:31N 44°05' E 039°02'0 0.0
2017-Dec-12 19:58N 44°05' E 039°02'0 0.0
2017-Dec-12 19:28N 44°05' E 039°02'0 0.0
2017-Dec-12 19:01N 44°05' E 039°02'0 0.0
2017-Dec-12 18:28N 44°05' E 039°02'0 0.0
2017-Dec-12 17:58N 44°05' E 039°02'0 0.0
2017-Dec-12 17:31N 44°05' E 039°02'0 0.0
2017-Dec-12 17:01N 44°05' E 039°02'0 0.0
2017-Dec-12 16:31N 44°05' E 039°02'0 0.0
2017-Dec-12 16:01N 44°05' E 039°02'0 0.0
2017-Dec-12 15:25N 44°05' E 039°02'0 0.0
2017-Dec-12 14:58N 44°05' E 039°02'0 0.0
2017-Dec-12 14:31N 44°05' E 039°02'0 0.0
2017-Dec-12 14:01N 44°05' E 039°02'0 0.0
2017-Dec-12 13:31N 44°05' E 039°02'0 0.0
2017-Dec-12 12:58N 44°05' E 039°02'0 0.0
2017-Dec-12 12:19N 44°05' E 039°02'0 0.0
2017-Dec-12 11:58N 44°05' E 039°02'0 0.0
2017-Dec-12 11:31N 44°05' E 039°02'0 0.0
2017-Dec-12 10:58N 44°05' E 039°02'0 0.0
2017-Dec-12 10:31N 44°05' E 039°02'0 0.0
2017-Dec-12 09:58N 44°05' E 039°02'0 0.0
2017-Dec-12 09:28N 44°05' E 039°02'0 0.0
2017-Dec-12 09:01N 44°05' E 039°02'0 0.0
2017-Dec-12 08:31N 44°05' E 039°02'0 0.0
2017-Dec-12 07:58N 44°05' E 039°02'0 0.0
2017-Dec-12 07:31N 44°05' E 039°02'0 0.0
2017-Dec-12 07:01N 44°05' E 039°02'0 0.0
2017-Dec-12 06:28N 44°05' E 039°02'0 0.0
2017-Dec-12 05:58N 44°05' E 039°02'0 0.0
2017-Dec-12 05:31N 44°05' E 039°02'0 0.0
2017-Dec-12 05:01N 44°05' E 039°02'0 0.0
2017-Dec-12 04:27N 44°05' E 039°02'0 0.0
2017-Dec-12 04:01N 44°05' E 039°02'0 0.0
2017-Dec-12 03:28N 44°05' E 039°02'0 0.0
2017-Dec-12 03:01N 44°05' E 039°02'0 0.0
2017-Dec-12 02:31N 44°05' E 039°02'0 0.0
2017-Dec-12 01:58N 44°05' E 039°02'0 0.0
2017-Dec-12 01:25N 44°05' E 039°02'0 0.0
2017-Dec-12 00:55N 44°05' E 039°02'0 0.0
2017-Dec-12 00:28N 44°05' E 039°02'0 0.0
2017-Dec-12 00:00N 44°05' E 039°02'0 0.0
2017-Dec-11 23:31N 44°05' E 039°02'0 0.0
2017-Dec-11 23:01N 44°05' E 039°02'0 0.0
2017-Dec-11 22:28N 44°05' E 039°02'0 0.0
2017-Dec-11 22:00N 44°05' E 039°02'0 0.0
2017-Dec-11 21:31N 44°05' E 039°02'0 0.0
2017-Dec-11 21:01N 44°05' E 039°02'0 0.0
2017-Dec-11 20:31N 44°05' E 039°02'0 0.0
2017-Dec-11 20:01N 44°05' E 039°02'0 0.0
2017-Dec-11 19:28N 44°05' E 039°02'0 0.0
2017-Dec-11 19:01N 44°05' E 039°02'0 0.0
2017-Dec-11 18:31N 44°05' E 039°02'0 0.0
2017-Dec-11 18:01N 44°05' E 039°02'0 0.0
2017-Dec-11 17:31N 44°05' E 039°02'0 0.0
2017-Dec-11 17:01N 44°05' E 039°02'0 0.0
2017-Dec-11 16:28N 44°05' E 039°02'0 0.0
2017-Dec-11 16:01N 44°05' E 039°02'0 0.0
2017-Dec-11 15:30N 44°05' E 039°02'0 0.0
2017-Dec-11 15:01N 44°05' E 039°02'0 0.0
2017-Dec-11 14:31N 44°05' E 039°02'0 0.0
2017-Dec-11 14:01N 44°05' E 039°02'0 0.0
2017-Dec-11 13:31N 44°05' E 039°02'0 0.0
2017-Dec-11 13:01N 44°05' E 039°02'0 0.0
2017-Dec-11 12:27N 44°05' E 039°02'0 0.0
2017-Dec-11 12:00N 44°05' E 039°02'0 0.0
2017-Dec-11 11:31N 44°05' E 039°02'0 0.0
2017-Dec-11 11:01N 44°05' E 039°02'0 0.0
2017-Dec-11 10:31N 44°05' E 039°02'0 0.0
2017-Dec-11 10:01N 44°05' E 039°02'0 0.0
2017-Dec-11 09:31N 44°05' E 039°02'0 0.0
2017-Dec-11 09:01N 44°05' E 039°02'0 0.0
2017-Dec-11 08:31N 44°05' E 039°02'0 0.0
2017-Dec-11 07:58N 44°05' E 039°02'0 0.0
2017-Dec-11 07:28N 44°05' E 039°02'0 0.0
2017-Dec-11 06:58N 44°05' E 039°02'0 0.0
2017-Dec-11 06:27N 44°05' E 039°02'0 0.0
2017-Dec-11 06:01N 44°05' E 039°02'0 0.0
2017-Dec-11 05:31N 44°05' E 039°02'0 0.0
2017-Dec-11 04:58N 44°05' E 039°02'0 0.0
2017-Dec-11 04:31N 44°05' E 039°02'0 0.0
2017-Dec-11 03:58N 44°05' E 039°02'0 0.0
2017-Dec-11 03:31N 44°05' E 039°02'0 0.0
2017-Dec-11 02:58N 44°05' E 039°02'0 0.1
2017-Dec-11 02:28N 44°05' E 039°02'0 0.0
2017-Dec-11 02:01N 44°05' E 039°02'0 0.1
2017-Dec-11 01:31N 44°05' E 039°02'0 0.0
2017-Dec-11 01:00N 44°05' E 039°02'0 0.0
2017-Dec-11 00:28N 44°05' E 039°02'0 0.0
2017-Dec-10 23:58N 44°05' E 039°02'0 0.0
2017-Dec-10 23:25N 44°05' E 039°02'0 0.0
2017-Dec-10 23:01N 44°05' E 039°02'0 0.0
2017-Dec-10 22:28N 44°05' E 039°02'0 0.1
2017-Dec-10 22:01N 44°05' E 039°02'0 0.0
2017-Dec-10 21:28N 44°05' E 039°02'0 0.2
2017-Dec-10 21:01N 44°05' E 039°02'0 0.1
2017-Dec-10 20:31N 44°05' E 039°02'0 0.1
2017-Dec-10 20:01N 44°05' E 039°02'0 0.0
2017-Dec-10 19:28N 44°05' E 039°02'0 0.0
2017-Dec-10 18:58N 44°05' E 039°02'0 0.0
2017-Dec-10 18:28N 44°05' E 039°02'0 0.0
2017-Dec-10 17:58N 44°05' E 039°02'0 0.0
2017-Dec-10 17:31N 44°05' E 039°02'0 0.0
2017-Dec-10 17:01N 44°05' E 039°02'0 0.0
2017-Dec-10 16:28N 44°05' E 039°02'0 0.0
2017-Dec-10 15:58N 44°05' E 039°02'0 0.0
2017-Dec-10 15:31N 44°05' E 039°02'0 0.0
2017-Dec-10 14:58N 44°05' E 039°02'0 0.0
2017-Dec-10 14:31N 44°05' E 039°02'0 0.0
2017-Dec-10 13:58N 44°05' E 039°02'0 0.0
2017-Dec-10 13:28N 44°05' E 039°02'0 0.0
2017-Dec-10 13:01N 44°05' E 039°02'0 0.0
2017-Dec-10 12:27N 44°05' E 039°02'0 0.0
2017-Dec-10 11:58N 44°05' E 039°02'0 0.0
2017-Dec-10 11:31N 44°05' E 039°02'0 0.0
2017-Dec-10 11:00N 44°05' E 039°02'0 0.0
2017-Dec-10 10:25N 44°05' E 039°02'0 0.0
2017-Dec-10 10:01N 44°05' E 039°02'0 0.0
2017-Dec-10 09:31N 44°05' E 039°02'0 0.0
2017-Dec-10 09:01N 44°05' E 039°02'0 0.0
2017-Dec-10 08:31N 44°05' E 039°02'0 0.0
2017-Dec-10 08:01N 44°05' E 039°02'0 0.0
2017-Dec-10 07:31N 44°05' E 039°02'0 0.0
2017-Dec-10 06:58N 44°05' E 039°02'0 0.0
2017-Dec-10 06:28N 44°05' E 039°02'0 0.0
2017-Dec-10 06:01N 44°05' E 039°02'0 0.0
2017-Dec-10 05:31N 44°05' E 039°02'0 0.0
2017-Dec-10 05:01N 44°05' E 039°02'0 0.0
2017-Dec-10 04:31N 44°05' E 039°02'0 0.0
2017-Dec-10 04:01N 44°05' E 039°02'0 0.0
2017-Dec-10 03:31N 44°05' E 039°02'0 0.0
2017-Dec-10 03:01N 44°05' E 039°02'0 0.0
2017-Dec-10 02:28N 44°05' E 039°02'0 0.0
2017-Dec-10 02:01N 44°05' E 039°02'0 0.0
2017-Dec-10 01:27N 44°05' E 039°02'0 0.0
2017-Dec-10 00:55N 44°05' E 039°02'0 0.0
2017-Dec-10 00:30N 44°05' E 039°02'0 0.0
2017-Dec-10 00:01N 44°05' E 039°02'0 0.0
2017-Dec-09 23:31N 44°05' E 039°02'0 0.0
2017-Dec-09 22:58N 44°05' E 039°02'0 0.0
2017-Dec-09 22:30N 44°05' E 039°02'0 0.0
2017-Dec-09 22:01N 44°05' E 039°02'0 0.0
2017-Dec-09 21:28N 44°05' E 039°02'0 0.0
2017-Dec-09 21:01N 44°05' E 039°02'0 0.0
2017-Dec-09 20:27N 44°05' E 039°02'0 0.0
2017-Dec-09 20:01N 44°05' E 039°02'0 0.0
2017-Dec-09 19:25N 44°05' E 039°02'0 0.0
2017-Dec-09 19:01N 44°05' E 039°02'0 0.0
2017-Dec-09 18:27N 44°05' E 039°02'0 0.0
2017-Dec-09 17:58N 44°05' E 039°02'0 0.0
2017-Dec-09 17:31N 44°05' E 039°02'0 0.0
2017-Dec-09 17:01N 44°05' E 039°02'0 0.0
2017-Dec-09 16:25N 44°05' E 039°02'0 0.0
2017-Dec-09 16:01N 44°05' E 039°02'0 0.0
2017-Dec-09 15:31N 44°05' E 039°02'0 0.0
2017-Dec-09 15:00N 44°05' E 039°02'0 0.0
2017-Dec-09 14:28N 44°05' E 039°02'0 0.0
2017-Dec-09 14:01N 44°05' E 039°02'0 0.0
2017-Dec-09 13:30N 44°05' E 039°02'0 0.0
2017-Dec-09 12:58N 44°05' E 039°02'0 0.0
2017-Dec-09 12:30N 44°05' E 039°02'0 0.0
2017-Dec-09 11:58N 44°05' E 039°02'0 0.0
2017-Dec-09 11:28N 44°05' E 039°02'0 0.0
2017-Dec-09 11:01N 44°05' E 039°02'0 0.0
2017-Dec-09 10:28N 44°05' E 039°02'0 0.0
2017-Dec-09 09:58N 44°05' E 039°02'0 0.0
2017-Dec-09 09:30N 44°05' E 039°02'0 0.0
2017-Dec-09 09:01N 44°05' E 039°02'0 0.0
2017-Dec-09 08:28N 44°05' E 039°02'0 0.0
2017-Dec-09 08:01N 44°05' E 039°02'0 0.0
2017-Dec-09 07:31N 44°05' E 039°02'0 0.0
2017-Dec-09 06:58N 44°05' E 039°02'0 0.0
2017-Dec-09 06:28N 44°05' E 039°02'0 0.0
2017-Dec-09 06:01N 44°05' E 039°02'0 0.0
2017-Dec-09 05:25N 44°05' E 039°02'0 0.0
2017-Dec-09 04:58N 44°05' E 039°02'0 0.0
2017-Dec-09 04:28N 44°05' E 039°02'0 0.0
2017-Dec-09 04:01N 44°05' E 039°02'0 0.0
2017-Dec-09 03:22N 44°05' E 039°02'0 0.0
2017-Dec-09 02:58N 44°05' E 039°02'0 0.0
2017-Dec-09 02:31N 44°05' E 039°02'0 0.0
2017-Dec-09 02:01N 44°05' E 039°02'0 0.0
2017-Dec-09 01:31N 44°05' E 039°02'0 0.0
2017-Dec-09 01:01N 44°05' E 039°02'0 0.0
2017-Dec-09 00:28N 44°05' E 039°02'0 0.0
2017-Dec-08 23:58N 44°05' E 039°02'0 0.0
2017-Dec-08 23:28N 44°05' E 039°02'0 0.0
2017-Dec-08 23:01N 44°05' E 039°02'0 0.0
2017-Dec-08 22:28N 44°05' E 039°02'0 0.0
2017-Dec-08 21:58N 44°05' E 039°02'0 0.0
2017-Dec-08 21:31N 44°05' E 039°02'0 0.0
2017-Dec-08 20:58N 44°05' E 039°02'0 0.1
2017-Dec-08 20:28N 44°05' E 039°02'0 0.5
2017-Dec-08 20:01N 44°05' E 039°02'0 0.0
2017-Dec-08 19:28N 44°05' E 039°02'0 0.1
2017-Dec-08 19:01N 44°05' E 039°02'0 0.0
2017-Dec-08 18:31N 44°05' E 039°02'0 0.0
2017-Dec-08 18:01N 44°05' E 039°02'0 0.0
2017-Dec-08 17:31N 44°05' E 039°02'0 0.0
2017-Dec-08 16:55N 44°05' E 039°02'0 0.0
2017-Dec-08 16:31N 44°05' E 039°02'0 0.0
2017-Dec-08 16:01N 44°05' E 039°02'0 0.0
2017-Dec-08 15:28N 44°05' E 039°02'0 0.0
2017-Dec-08 15:00N 44°05' E 039°02'0 0.0
2017-Dec-08 14:28N 44°05' E 039°02'0 0.0
2017-Dec-08 14:01N 44°05' E 039°02'0 0.0
2017-Dec-08 13:28N 44°05' E 039°02'0 0.0
2017-Dec-08 13:01N 44°05' E 039°02'0 0.0
2017-Dec-08 12:31N 44°05' E 039°02'0 0.0
2017-Dec-08 12:01N 44°05' E 039°02'0 0.0
2017-Dec-08 11:28N 44°05' E 039°02'0 0.0
2017-Dec-08 11:01N 44°05' E 039°02'0 0.0
2017-Dec-08 10:31N 44°05' E 039°02'0 0.0
2017-Dec-08 10:00N 44°05' E 039°02'0 0.0
2017-Dec-08 09:31N 44°05' E 039°02'0 0.0
2017-Dec-08 09:00N 44°05' E 039°02'0 0.0
2017-Dec-08 08:28N 44°05' E 039°02'0 0.0
2017-Dec-08 08:01N 44°05' E 039°02'0 0.0
2017-Dec-08 07:28N 44°05' E 039°02'0 0.0
2017-Dec-08 07:01N 44°05' E 039°02'0 0.0
2017-Dec-08 06:28N 44°05' E 039°02'0 0.0
2017-Dec-08 06:01N 44°05' E 039°02'0 0.0
2017-Dec-08 05:31N 44°05' E 039°02'0 0.0
2017-Dec-08 04:58N 44°05' E 039°02'0 0.0
2017-Dec-08 04:28N 44°05' E 039°02'0 0.0
2017-Dec-08 03:58N 44°05' E 039°02'0 0.0
2017-Dec-08 03:28N 44°05' E 039°02'0 0.0
2017-Dec-08 03:01N 44°05' E 039°02'0 0.0
2017-Dec-08 02:31N 44°05' E 039°02'0 0.1
2017-Dec-08 01:58N 44°05' E 039°02'0 0.1
2017-Dec-08 01:28N 44°05' E 039°02'0 0.0
2017-Dec-08 01:01N 44°05' E 039°02'0 0.0
2017-Dec-08 00:31N 44°05' E 039°02'0 0.0
2017-Dec-07 23:58N 44°05' E 039°02'0 0.0
2017-Dec-07 23:28N 44°05' E 039°02'0 0.0
2017-Dec-07 23:01N 44°05' E 039°02'0 0.0
2017-Dec-07 22:30N 44°05' E 039°02'0 0.0
2017-Dec-07 22:01N 44°05' E 039°02'0 0.0
2017-Dec-07 21:31N 44°05' E 039°02'0 0.0
2017-Dec-07 21:01N 44°05' E 039°02'0 0.0
2017-Dec-07 20:24N 44°05' E 039°02'0 0.2
2017-Dec-07 20:01N 44°05' E 039°02'1 2.7
2017-Dec-07 19:30N 44°05' E 039°04'1 1.1
2017-Dec-07 18:58N 44°06' E 039°04'0 0.0
2017-Dec-07 18:31N 44°06' E 039°04'0 0.0
2017-Dec-07 18:01N 44°06' E 039°04'0 0.0
2017-Dec-07 17:28N 44°06' E 039°04'0 0.0
2017-Dec-07 16:58N 44°06' E 039°04'0 0.0
2017-Dec-07 16:31N 44°06' E 039°04'0 0.0
2017-Dec-07 16:01N 44°06' E 039°04'0 0.0
2017-Dec-07 15:31N 44°06' E 039°04'0 0.0
2017-Dec-07 14:58N 44°06' E 039°04'0 0.0
2017-Dec-07 14:31N 44°06' E 039°04'0 0.0
2017-Dec-07 13:58N 44°06' E 039°04'0 0.0
2017-Dec-07 13:27N 44°06' E 039°04'0 0.0
2017-Dec-07 12:57N 44°06' E 039°04'0 0.0
2017-Dec-07 12:28N 44°06' E 039°04'0 0.0
2017-Dec-07 12:01N 44°06' E 039°04'0 0.0
2017-Dec-07 11:28N 44°06' E 039°04'0 0.0
2017-Dec-07 10:58N 44°06' E 039°04'0 0.0
2017-Dec-07 10:31N 44°06' E 039°04'0 0.0
2017-Dec-07 09:58N 44°06' E 039°04'0 0.0
2017-Dec-07 09:31N 44°06' E 039°04'0 0.0
2017-Dec-07 08:58N 44°06' E 039°04'0 0.0
2017-Dec-07 08:31N 44°06' E 039°04'0 0.0
2017-Dec-07 07:58N 44°06' E 039°04'0 0.0
2017-Dec-07 07:31N 44°06' E 039°04'0 0.0
2017-Dec-07 06:58N 44°06' E 039°04'0 0.0
2017-Dec-07 06:28N 44°06' E 039°04'0 0.0
2017-Dec-07 05:25N 44°06' E 039°04'0 0.0
2017-Dec-07 05:01N 44°06' E 039°04'0 0.0
2017-Dec-07 04:31N 44°06' E 039°04'0 0.0
2017-Dec-07 04:01N 44°06' E 039°04'0 0.0
2017-Dec-07 03:28N 44°06' E 039°04'0 0.0
2017-Dec-07 02:58N 44°06' E 039°04'0 0.0
2017-Dec-07 02:31N 44°06' E 039°04'0 0.0
2017-Dec-07 02:01N 44°06' E 039°04'0 0.0
2017-Dec-07 01:31N 44°06' E 039°04'0 0.0
2017-Dec-07 00:58N 44°06' E 039°04'0 0.0
2017-Dec-07 00:28N 44°06' E 039°04'0 0.0
2017-Dec-06 23:58N 44°06' E 039°04'0 0.0
2017-Dec-06 23:28N 44°06' E 039°04'0 0.0
2017-Dec-06 22:58N 44°06' E 039°04'0 0.0
2017-Dec-06 22:28N 44°06' E 039°04'0 0.0
2017-Dec-06 21:58N 44°06' E 039°04'0 0.0
2017-Dec-06 21:31N 44°06' E 039°04'0 0.0
2017-Dec-06 20:58N 44°06' E 039°04'  

Dump ship's entire track history